sensor_id;sensor_type;location;lat;lon;timestamp;temperature;humidity
52024;DHT22;38038;45.922;13.604;2022-12-18T00:01:16;4.50;99.90
52024;DHT22;38038;45.922;13.604;2022-12-18T00:06:08;4.20;99.90
52024;DHT22;38038;45.922;13.604;2022-12-18T00:08:34;4.20;99.90
52024;DHT22;38038;45.922;13.604;2022-12-18T00:13:29;4.10;99.90
52024;DHT22;38038;45.922;13.604;2022-12-18T00:16:01;4.20;99.90
52024;DHT22;38038;45.922;13.604;2022-12-18T00:18:26;4.30;99.90
52024;DHT22;38038;45.922;13.604;2022-12-18T00:20:52;4.20;99.90
52024;DHT22;38038;45.922;13.604;2022-12-18T00:23:18;4.30;99.90
52024;DHT22;38038;45.922;13.604;2022-12-18T00:25:43;4.20;99.90
52024;DHT22;38038;45.922;13.604;2022-12-18T00:28:09;4.20;99.90
52024;DHT22;38038;45.922;13.604;2022-12-18T00:30:35;4.20;99.90
52024;DHT22;38038;45.922;13.604;2022-12-18T00:33:13;4.20;99.90
52024;DHT22;38038;45.922;13.604;2022-12-18T00:35:38;4.20;99.90
52024;DHT22;38038;45.922;13.604;2022-12-18T00:38:04;4.20;99.90
52024;DHT22;38038;45.922;13.604;2022-12-18T00:40:31;4.10;99.90
52024;DHT22;38038;45.922;13.604;2022-12-18T00:42:57;4.20;99.90
52024;DHT22;38038;45.922;13.604;2022-12-18T00:47:53;4.00;99.90
52024;DHT22;38038;45.922;13.604;2022-12-18T00:50:20;3.90;99.90
52024;DHT22;38038;45.922;13.604;2022-12-18T00:52:46;3.90;99.90
52024;DHT22;38038;45.922;13.604;2022-12-18T00:55:12;3.90;99.90
52024;DHT22;38038;45.922;13.604;2022-12-18T00:57:38;3.90;99.90
52024;DHT22;38038;45.922;13.604;2022-12-18T01:00:05;3.90;99.90
52024;DHT22;38038;45.922;13.604;2022-12-18T01:02:31;3.80;99.90
52024;DHT22;38038;45.922;13.604;2022-12-18T01:04:57;3.70;99.90
52024;DHT22;38038;45.922;13.604;2022-12-18T01:07:23;3.80;99.90
52024;DHT22;38038;45.922;13.604;2022-12-18T01:09:49;3.80;99.90
52024;DHT22;38038;45.922;13.604;2022-12-18T01:12:14;3.90;99.90
52024;DHT22;38038;45.922;13.604;2022-12-18T01:14:40;3.90;99.90
52024;DHT22;38038;45.922;13.604;2022-12-18T01:17:06;3.80;99.90
52024;DHT22;38038;45.922;13.604;2022-12-18T01:19:32;3.70;99.90
52024;DHT22;38038;45.922;13.604;2022-12-18T01:21:58;3.70;99.90
52024;DHT22;38038;45.922;13.604;2022-12-18T01:24:24;3.70;99.90
52024;DHT22;38038;45.922;13.604;2022-12-18T01:26:50;3.70;99.90
52024;DHT22;38038;45.922;13.604;2022-12-18T01:29:15;3.80;99.90
52024;DHT22;38038;45.922;13.604;2022-12-18T01:31:41;3.70;99.90
52024;DHT22;38038;45.922;13.604;2022-12-18T01:34:07;3.80;99.90
52024;DHT22;38038;45.922;13.604;2022-12-18T01:36:36;3.70;99.90
52024;DHT22;38038;45.922;13.604;2022-12-18T01:39:11;3.70;99.90
52024;DHT22;38038;45.922;13.604;2022-12-18T01:41:37;3.70;99.90
52024;DHT22;38038;45.922;13.604;2022-12-18T01:47:34;3.70;99.90
52024;DHT22;38038;45.922;13.604;2022-12-18T01:50:05;3.70;99.90
52024;DHT22;38038;45.922;13.604;2022-12-18T01:52:33;3.70;99.90
52024;DHT22;38038;45.922;13.604;2022-12-18T01:55:00;3.70;99.90
52024;DHT22;38038;45.922;13.604;2022-12-18T01:57:27;3.60;99.90
52024;DHT22;38038;45.922;13.604;2022-12-18T01:59:57;3.50;99.90
52024;DHT22;38038;45.922;13.604;2022-12-18T02:02:27;3.40;99.90
52024;DHT22;38038;45.922;13.604;2022-12-18T02:04:54;3.40;99.90
52024;DHT22;38038;45.922;13.604;2022-12-18T02:07:37;3.40;99.90
52024;DHT22;38038;45.922;13.604;2022-12-18T02:10:51;3.50;99.90
52024;DHT22;38038;45.922;13.604;2022-12-18T02:13:15;3.40;99.90
52024;DHT22;38038;45.922;13.604;2022-12-18T02:18:47;3.50;99.90
52024;DHT22;38038;45.922;13.604;2022-12-18T02:23:56;3.50;99.90
52024;DHT22;38038;45.922;13.604;2022-12-18T02:26:29;3.50;99.90
52024;DHT22;38038;45.922;13.604;2022-12-18T02:29:00;3.50;99.90
52024;DHT22;38038;45.922;13.604;2022-12-18T02:31:31;3.50;99.90
52024;DHT22;38038;45.922;13.604;2022-12-18T02:34:01;3.50;99.90
52024;DHT22;38038;45.922;13.604;2022-12-18T02:36:29;3.50;99.90
52024;DHT22;38038;45.922;13.604;2022-12-18T02:38:56;3.30;99.90
52024;DHT22;38038;45.922;13.604;2022-12-18T02:41:22;3.20;99.90
52024;DHT22;38038;45.922;13.604;2022-12-18T02:43:55;3.20;99.90
52024;DHT22;38038;45.922;13.604;2022-12-18T02:46:33;3.20;99.90
52024;DHT22;38038;45.922;13.604;2022-12-18T02:49:17;3.20;99.90
52024;DHT22;38038;45.922;13.604;2022-12-18T02:51:53;3.10;99.90
52024;DHT22;38038;45.922;13.604;2022-12-18T03:00:22;3.20;99.90
52024;DHT22;38038;45.922;13.604;2022-12-18T03:03:23;3.30;99.90
52024;DHT22;38038;45.922;13.604;2022-12-18T03:06:01;3.30;99.90
52024;DHT22;38038;45.922;13.604;2022-12-18T03:08:48;3.30;99.90
52024;DHT22;38038;45.922;13.604;2022-12-18T03:11:16;3.30;99.90
52024;DHT22;38038;45.922;13.604;2022-12-18T03:14:04;3.30;99.90
52024;DHT22;38038;45.922;13.604;2022-12-18T03:16:34;3.30;99.90
52024;DHT22;38038;45.922;13.604;2022-12-18T03:19:08;3.30;99.90
52024;DHT22;38038;45.922;13.604;2022-12-18T03:21:49;3.30;99.90
52024;DHT22;38038;45.922;13.604;2022-12-18T03:24:16;3.30;99.90
52024;DHT22;38038;45.922;13.604;2022-12-18T03:26:45;3.30;99.90
52024;DHT22;38038;45.922;13.604;2022-12-18T03:29:19;3.20;99.90
52024;DHT22;38038;45.922;13.604;2022-12-18T03:31:51;3.20;99.90
52024;DHT22;38038;45.922;13.604;2022-12-18T03:34:35;3.20;99.90
52024;DHT22;38038;45.922;13.604;2022-12-18T03:37:03;3.30;99.90
52024;DHT22;38038;45.922;13.604;2022-12-18T03:39:29;3.20;99.90
52024;DHT22;38038;45.922;13.604;2022-12-18T03:42:15;3.30;99.90
52024;DHT22;38038;45.922;13.604;2022-12-18T03:48:04;3.20;99.90
52024;DHT22;38038;45.922;13.604;2022-12-18T03:50:48;3.20;99.90
52024;DHT22;38038;45.922;13.604;2022-12-18T03:53:41;3.20;99.90
52024;DHT22;38038;45.922;13.604;2022-12-18T03:56:11;3.20;99.90
52024;DHT22;38038;45.922;13.604;2022-12-18T03:58:40;3.30;99.90
52024;DHT22;38038;45.922;13.604;2022-12-18T04:01:07;3.20;99.90
52024;DHT22;38038;45.922;13.604;2022-12-18T04:03:36;3.20;99.90
52024;DHT22;38038;45.922;13.604;2022-12-18T04:06:03;3.20;99.90
52024;DHT22;38038;45.922;13.604;2022-12-18T04:08:30;3.10;99.90
52024;DHT22;38038;45.922;13.604;2022-12-18T04:10:56;3.10;99.90
52024;DHT22;38038;45.922;13.604;2022-12-18T04:13:41;3.10;99.90
52024;DHT22;38038;45.922;13.604;2022-12-18T04:16:07;3.10;99.90
52024;DHT22;38038;45.922;13.604;2022-12-18T04:18:35;3.10;99.90
52024;DHT22;38038;45.922;13.604;2022-12-18T04:21:01;3.00;99.90
52024;DHT22;38038;45.922;13.604;2022-12-18T04:23:26;2.90;99.90
52024;DHT22;38038;45.922;13.604;2022-12-18T04:25:52;2.80;99.90
52024;DHT22;38038;45.922;13.604;2022-12-18T04:28:18;2.90;99.90
52024;DHT22;38038;45.922;13.604;2022-12-18T04:30:43;2.90;99.90
52024;DHT22;38038;45.922;13.604;2022-12-18T04:33:10;3.00;99.90
52024;DHT22;38038;45.922;13.604;2022-12-18T04:35:36;2.90;99.90
52024;DHT22;38038;45.922;13.604;2022-12-18T04:38:02;3.00;99.90
52024;DHT22;38038;45.922;13.604;2022-12-18T04:40:27;3.10;99.90
52024;DHT22;38038;45.922;13.604;2022-12-18T04:42:53;3.00;99.90
52024;DHT22;38038;45.922;13.604;2022-12-18T04:45:19;3.10;99.90
52024;DHT22;38038;45.922;13.604;2022-12-18T04:47:44;3.10;99.90
52024;DHT22;38038;45.922;13.604;2022-12-18T04:50:10;3.10;99.90
52024;DHT22;38038;45.922;13.604;2022-12-18T04:52:36;3.10;99.90
52024;DHT22;38038;45.922;13.604;2022-12-18T04:55:02;3.10;99.90
52024;DHT22;38038;45.922;13.604;2022-12-18T04:57:28;3.00;99.90
52024;DHT22;38038;45.922;13.604;2022-12-18T04:59:54;3.00;99.90
52024;DHT22;38038;45.922;13.604;2022-12-18T05:02:19;3.00;99.90
52024;DHT22;38038;45.922;13.604;2022-12-18T05:04:45;2.90;99.90
52024;DHT22;38038;45.922;13.604;2022-12-18T05:07:11;2.90;99.90
52024;DHT22;38038;45.922;13.604;2022-12-18T05:09:36;3.00;99.90
52024;DHT22;38038;45.922;13.604;2022-12-18T05:12:02;2.90;99.90
52024;DHT22;38038;45.922;13.604;2022-12-18T05:14:28;2.90;99.90
52024;DHT22;38038;45.922;13.604;2022-12-18T05:16:54;2.90;99.90
52024;DHT22;38038;45.922;13.604;2022-12-18T05:19:20;2.80;99.90
52024;DHT22;38038;45.922;13.604;2022-12-18T05:22:01;2.70;99.90
52024;DHT22;38038;45.922;13.604;2022-12-18T05:24:27;2.80;99.90
52024;DHT22;38038;45.922;13.604;2022-12-18T05:26:53;2.80;99.90
52024;DHT22;38038;45.922;13.604;2022-12-18T05:29:18;2.80;99.90
52024;DHT22;38038;45.922;13.604;2022-12-18T05:31:44;2.90;99.90
52024;DHT22;38038;45.922;13.604;2022-12-18T05:34:10;2.80;99.90
52024;DHT22;38038;45.922;13.604;2022-12-18T05:36:45;2.80;99.90
52024;DHT22;38038;45.922;13.604;2022-12-18T05:39:10;2.80;99.90
52024;DHT22;38038;45.922;13.604;2022-12-18T05:41:36;2.70;99.90
52024;DHT22;38038;45.922;13.604;2022-12-18T05:44:02;2.60;99.90
52024;DHT22;38038;45.922;13.604;2022-12-18T05:46:28;2.70;99.90
52024;DHT22;38038;45.922;13.604;2022-12-18T05:48:55;2.60;99.90
52024;DHT22;38038;45.922;13.604;2022-12-18T05:51:22;2.50;99.90
52024;DHT22;38038;45.922;13.604;2022-12-18T05:53:48;2.40;99.90
52024;DHT22;38038;45.922;13.604;2022-12-18T05:56:16;2.40;99.90
52024;DHT22;38038;45.922;13.604;2022-12-18T05:58:43;2.40;99.90
52024;DHT22;38038;45.922;13.604;2022-12-18T06:01:21;2.50;99.90
52024;DHT22;38038;45.922;13.604;2022-12-18T06:03:47;2.60;99.90
52024;DHT22;38038;45.922;13.604;2022-12-18T06:06:24;2.60;99.90
52024;DHT22;38038;45.922;13.604;2022-12-18T06:08:50;2.50;99.90
52024;DHT22;38038;45.922;13.604;2022-12-18T06:11:20;2.50;99.90
52024;DHT22;38038;45.922;13.604;2022-12-18T06:13:46;2.40;99.90
52024;DHT22;38038;45.922;13.604;2022-12-18T06:16:12;2.40;99.90
52024;DHT22;38038;45.922;13.604;2022-12-18T06:18:38;2.30;99.90
52024;DHT22;38038;45.922;13.604;2022-12-18T06:21:04;2.30;99.90
52024;DHT22;38038;45.922;13.604;2022-12-18T06:23:30;2.30;99.90
52024;DHT22;38038;45.922;13.604;2022-12-18T06:25:55;2.40;99.90
52024;DHT22;38038;45.922;13.604;2022-12-18T06:28:21;2.40;99.90
52024;DHT22;38038;45.922;13.604;2022-12-18T06:30:48;2.50;99.90
52024;DHT22;38038;45.922;13.604;2022-12-18T06:33:14;2.50;99.90
52024;DHT22;38038;45.922;13.604;2022-12-18T06:35:40;2.50;99.90
52024;DHT22;38038;45.922;13.604;2022-12-18T06:38:06;2.50;99.90
52024;DHT22;38038;45.922;13.604;2022-12-18T06:40:32;2.50;99.90
52024;DHT22;38038;45.922;13.604;2022-12-18T06:42:58;2.50;99.90
52024;DHT22;38038;45.922;13.604;2022-12-18T06:45:23;2.50;99.90
52024;DHT22;38038;45.922;13.604;2022-12-18T06:47:50;2.60;99.90
52024;DHT22;38038;45.922;13.604;2022-12-18T06:50:15;2.60;99.90
52024;DHT22;38038;45.922;13.604;2022-12-18T06:52:41;2.50;99.90
52024;DHT22;38038;45.922;13.604;2022-12-18T06:55:10;2.50;99.90
52024;DHT22;38038;45.922;13.604;2022-12-18T06:57:36;2.60;99.90
52024;DHT22;38038;45.922;13.604;2022-12-18T07:00:04;2.70;99.90
52024;DHT22;38038;45.922;13.604;2022-12-18T07:02:30;2.80;99.90
52024;DHT22;38038;45.922;13.604;2022-12-18T07:04:55;2.80;99.90
52024;DHT22;38038;45.922;13.604;2022-12-18T07:07:21;2.80;99.90
52024;DHT22;38038;45.922;13.604;2022-12-18T07:09:47;2.80;99.90
52024;DHT22;38038;45.922;13.604;2022-12-18T07:12:13;2.70;99.90
52024;DHT22;38038;45.922;13.604;2022-12-18T07:14:38;2.70;99.90
52024;DHT22;38038;45.922;13.604;2022-12-18T07:17:04;2.70;99.90
52024;DHT22;38038;45.922;13.604;2022-12-18T07:19:30;2.70;99.90
52024;DHT22;38038;45.922;13.604;2022-12-18T07:21:57;2.80;99.90
52024;DHT22;38038;45.922;13.604;2022-12-18T07:24:22;2.70;99.90
52024;DHT22;38038;45.922;13.604;2022-12-18T07:26:48;2.80;99.90
52024;DHT22;38038;45.922;13.604;2022-12-18T07:29:17;2.80;99.90
52024;DHT22;38038;45.922;13.604;2022-12-18T07:31:43;2.90;99.90
52024;DHT22;38038;45.922;13.604;2022-12-18T07:34:13;2.90;99.90
52024;DHT22;38038;45.922;13.604;2022-12-18T07:36:39;2.90;99.90
52024;DHT22;38038;45.922;13.604;2022-12-18T07:39:05;2.90;99.90
52024;DHT22;38038;45.922;13.604;2022-12-18T07:41:31;2.80;99.90
52024;DHT22;38038;45.922;13.604;2022-12-18T07:43:56;2.90;99.90
52024;DHT22;38038;45.922;13.604;2022-12-18T07:46:22;3.00;99.90
52024;DHT22;38038;45.922;13.604;2022-12-18T07:48:48;3.10;99.90
52024;DHT22;38038;45.922;13.604;2022-12-18T07:51:14;3.20;99.90
52024;DHT22;38038;45.922;13.604;2022-12-18T07:53:40;3.20;99.90
52024;DHT22;38038;45.922;13.604;2022-12-18T07:56:08;3.20;99.90
52024;DHT22;38038;45.922;13.604;2022-12-18T07:58:34;3.20;99.90
52024;DHT22;38038;45.922;13.604;2022-12-18T08:03:31;3.30;99.90
52024;DHT22;38038;45.922;13.604;2022-12-18T08:06:05;3.40;99.90
52024;DHT22;38038;45.922;13.604;2022-12-18T08:08:32;3.40;99.90
52024;DHT22;38038;45.922;13.604;2022-12-18T08:10:58;3.50;99.90
52024;DHT22;38038;45.922;13.604;2022-12-18T08:13:24;3.50;99.90
52024;DHT22;38038;45.922;13.604;2022-12-18T08:16:02;3.40;99.90
52024;DHT22;38038;45.922;13.604;2022-12-18T08:18:28;3.50;99.90
52024;DHT22;38038;45.922;13.604;2022-12-18T08:20:55;3.60;99.90
52024;DHT22;38038;45.922;13.604;2022-12-18T08:23:21;3.70;99.90
52024;DHT22;38038;45.922;13.604;2022-12-18T08:25:47;3.70;99.90
52024;DHT22;38038;45.922;13.604;2022-12-18T08:28:12;3.80;99.90
52024;DHT22;38038;45.922;13.604;2022-12-18T08:30:38;3.90;99.90
52024;DHT22;38038;45.922;13.604;2022-12-18T08:33:04;4.00;99.90
52024;DHT22;38038;45.922;13.604;2022-12-18T08:35:30;4.00;99.90
52024;DHT22;38038;45.922;13.604;2022-12-18T08:37:55;4.20;99.90
52024;DHT22;38038;45.922;13.604;2022-12-18T08:40:21;4.20;99.90
52024;DHT22;38038;45.922;13.604;2022-12-18T08:42:47;4.20;99.90
52024;DHT22;38038;45.922;13.604;2022-12-18T08:45:31;4.30;99.90
52024;DHT22;38038;45.922;13.604;2022-12-18T08:47:57;4.40;99.90
52024;DHT22;38038;45.922;13.604;2022-12-18T08:50:22;4.40;99.90
52024;DHT22;38038;45.922;13.604;2022-12-18T08:52:48;4.50;99.90
52024;DHT22;38038;45.922;13.604;2022-12-18T08:55:14;4.50;99.90
52024;DHT22;38038;45.922;13.604;2022-12-18T08:57:40;4.60;99.90
52024;DHT22;38038;45.922;13.604;2022-12-18T09:00:06;4.70;99.90
52024;DHT22;38038;45.922;13.604;2022-12-18T09:02:31;4.70;99.90
52024;DHT22;38038;45.922;13.604;2022-12-18T09:04:58;4.80;99.90
52024;DHT22;38038;45.922;13.604;2022-12-18T09:07:23;4.80;99.90
52024;DHT22;38038;45.922;13.604;2022-12-18T09:09:49;4.90;99.90
52024;DHT22;38038;45.922;13.604;2022-12-18T09:12:15;5.00;99.90
52024;DHT22;38038;45.922;13.604;2022-12-18T09:14:40;5.00;99.90
52024;DHT22;38038;45.922;13.604;2022-12-18T09:17:06;5.00;99.90
52024;DHT22;38038;45.922;13.604;2022-12-18T09:19:32;5.10;99.90
52024;DHT22;38038;45.922;13.604;2022-12-18T09:21:57;5.10;99.90
52024;DHT22;38038;45.922;13.604;2022-12-18T09:24:23;5.20;99.90
52024;DHT22;38038;45.922;13.604;2022-12-18T09:26:52;5.30;99.90
52024;DHT22;38038;45.922;13.604;2022-12-18T09:29:18;5.30;99.90
52024;DHT22;38038;45.922;13.604;2022-12-18T09:31:43;5.30;99.90
52024;DHT22;38038;45.922;13.604;2022-12-18T09:34:09;5.30;99.90
52024;DHT22;38038;45.922;13.604;2022-12-18T09:36:35;5.30;99.90
52024;DHT22;38038;45.922;13.604;2022-12-18T09:39:00;5.40;99.90
52024;DHT22;38038;45.922;13.604;2022-12-18T09:46:40;5.40;99.90
52024;DHT22;38038;45.922;13.604;2022-12-18T09:49:16;5.40;99.90
52024;DHT22;38038;45.922;13.604;2022-12-18T09:54:38;5.50;99.90
52024;DHT22;38038;45.922;13.604;2022-12-18T09:57:17;5.50;99.90
52024;DHT22;38038;45.922;13.604;2022-12-18T09:59:48;5.50;99.90
52024;DHT22;38038;45.922;13.604;2022-12-18T10:02:18;5.60;99.90
52024;DHT22;38038;45.922;13.604;2022-12-18T10:04:50;5.50;99.90
52024;DHT22;38038;45.922;13.604;2022-12-18T10:10:22;5.70;99.90
52024;DHT22;38038;45.922;13.604;2022-12-18T10:18:57;5.70;99.90
52024;DHT22;38038;45.922;13.604;2022-12-18T10:21:56;5.70;99.90
52024;DHT22;38038;45.922;13.604;2022-12-18T10:27:21;5.80;99.90
52024;DHT22;38038;45.922;13.604;2022-12-18T10:29:47;5.80;99.90
52024;DHT22;38038;45.922;13.604;2022-12-18T10:32:19;5.80;99.90
52024;DHT22;38038;45.922;13.604;2022-12-18T10:34:46;5.80;99.90
52024;DHT22;38038;45.922;13.604;2022-12-18T10:37:20;5.90;99.90
52024;DHT22;38038;45.922;13.604;2022-12-18T10:40:15;6.00;99.90
52024;DHT22;38038;45.922;13.604;2022-12-18T10:42:41;6.10;99.90
52024;DHT22;38038;45.922;13.604;2022-12-18T10:47:35;6.00;99.90
52024;DHT22;38038;45.922;13.604;2022-12-18T10:50:01;6.00;99.90
52024;DHT22;38038;45.922;13.604;2022-12-18T10:52:27;6.00;99.90
52024;DHT22;38038;45.922;13.604;2022-12-18T10:54:59;6.10;99.90
52024;DHT22;38038;45.922;13.604;2022-12-18T10:57:34;6.10;99.90
52024;DHT22;38038;45.922;13.604;2022-12-18T11:00:21;6.10;99.90
52024;DHT22;38038;45.922;13.604;2022-12-18T11:02:47;6.30;99.90
52024;DHT22;38038;45.922;13.604;2022-12-18T11:05:42;6.30;99.90
52024;DHT22;38038;45.922;13.604;2022-12-18T11:08:11;6.30;99.90
52024;DHT22;38038;45.922;13.604;2022-12-18T11:10:46;6.30;99.90
52024;DHT22;38038;45.922;13.604;2022-12-18T11:13:23;6.40;99.90
52024;DHT22;38038;45.922;13.604;2022-12-18T11:15:50;6.40;99.90
52024;DHT22;38038;45.922;13.604;2022-12-18T11:18:34;6.40;99.90
52024;DHT22;38038;45.922;13.604;2022-12-18T11:21:05;6.30;99.90
52024;DHT22;38038;45.922;13.604;2022-12-18T11:23:31;6.40;99.90
52024;DHT22;38038;45.922;13.604;2022-12-18T11:26:02;6.40;99.90
52024;DHT22;38038;45.922;13.604;2022-12-18T11:28:29;6.40;99.90
52024;DHT22;38038;45.922;13.604;2022-12-18T11:31:32;6.40;99.90
52024;DHT22;38038;45.922;13.604;2022-12-18T11:36:29;6.40;99.90
52024;DHT22;38038;45.922;13.604;2022-12-18T11:38:57;6.40;99.90
52024;DHT22;38038;45.922;13.604;2022-12-18T11:44:16;6.60;99.60
52024;DHT22;38038;45.922;13.604;2022-12-18T11:46:53;6.50;99.00
52024;DHT22;38038;45.922;13.604;2022-12-18T11:54:17;6.40;99.20
52024;DHT22;38038;45.922;13.604;2022-12-18T12:00:30;6.40;99.70
52024;DHT22;38038;45.922;13.604;2022-12-18T12:08:20;6.40;99.50
52024;DHT22;38038;45.922;13.604;2022-12-18T12:13:33;6.50;99.60
52024;DHT22;38038;45.922;13.604;2022-12-18T12:21:40;6.40;99.50
52024;DHT22;38038;45.922;13.604;2022-12-18T12:27:08;6.40;99.90
52024;DHT22;38038;45.922;13.604;2022-12-18T12:30:08;6.40;99.10
52024;DHT22;38038;45.922;13.604;2022-12-18T12:35:44;6.30;99.70
52024;DHT22;38038;45.922;13.604;2022-12-18T12:38:25;6.20;99.10
52024;DHT22;38038;45.922;13.604;2022-12-18T12:41:03;6.20;99.50
52024;DHT22;38038;45.922;13.604;2022-12-18T12:46:05;6.10;99.00
52024;DHT22;38038;45.922;13.604;2022-12-18T12:48:41;6.10;99.00
52024;DHT22;38038;45.922;13.604;2022-12-18T12:51:13;6.10;98.90
52024;DHT22;38038;45.922;13.604;2022-12-18T12:53:41;6.00;99.20
52024;DHT22;38038;45.922;13.604;2022-12-18T12:56:09;6.00;99.60
52024;DHT22;38038;45.922;13.604;2022-12-18T13:01:32;5.90;99.70
52024;DHT22;38038;45.922;13.604;2022-12-18T13:08:59;5.90;99.30
52024;DHT22;38038;45.922;13.604;2022-12-18T13:11:45;5.90;99.80
52024;DHT22;38038;45.922;13.604;2022-12-18T13:14:39;5.90;99.90
52024;DHT22;38038;45.922;13.604;2022-12-18T13:17:36;5.90;99.40
52024;DHT22;38038;45.922;13.604;2022-12-18T13:20:08;5.90;99.50
52024;DHT22;38038;45.922;13.604;2022-12-18T13:25:03;5.90;99.70
52024;DHT22;38038;45.922;13.604;2022-12-18T13:38:43;5.80;99.90
52024;DHT22;38038;45.922;13.604;2022-12-18T13:41:23;5.70;99.90
52024;DHT22;38038;45.922;13.604;2022-12-18T13:43:50;5.70;99.90
52024;DHT22;38038;45.922;13.604;2022-12-18T13:46:45;5.60;99.90
52024;DHT22;38038;45.922;13.604;2022-12-18T13:51:48;5.50;99.90
52024;DHT22;38038;45.922;13.604;2022-12-18T13:54:36;5.60;99.90
52024;DHT22;38038;45.922;13.604;2022-12-18T13:57:04;5.60;99.90
52024;DHT22;38038;45.922;13.604;2022-12-18T13:59:36;5.50;99.90
52024;DHT22;38038;45.922;13.604;2022-12-18T14:02:14;5.60;99.90
52024;DHT22;38038;45.922;13.604;2022-12-18T14:04:40;5.60;99.90
52024;DHT22;38038;45.922;13.604;2022-12-18T14:07:28;5.50;99.90
52024;DHT22;38038;45.922;13.604;2022-12-18T14:09:56;5.40;99.90
52024;DHT22;38038;45.922;13.604;2022-12-18T14:12:25;5.40;99.90
52024;DHT22;38038;45.922;13.604;2022-12-18T14:17:54;5.30;99.90
52024;DHT22;38038;45.922;13.604;2022-12-18T14:20:20;5.30;99.90
52024;DHT22;38038;45.922;13.604;2022-12-18T14:22:48;5.30;99.90
52024;DHT22;38038;45.922;13.604;2022-12-18T14:25:25;5.20;99.90
52024;DHT22;38038;45.922;13.604;2022-12-18T14:28:07;5.20;99.90
52024;DHT22;38038;45.922;13.604;2022-12-18T14:30:39;5.10;99.90
52024;DHT22;38038;45.922;13.604;2022-12-18T14:35:31;4.90;99.90
52024;DHT22;38038;45.922;13.604;2022-12-18T14:40:42;4.90;99.90
52024;DHT22;38038;45.922;13.604;2022-12-18T14:43:11;4.90;99.90
52024;DHT22;38038;45.922;13.604;2022-12-18T14:45:42;4.80;99.90
52024;DHT22;38038;45.922;13.604;2022-12-18T14:48:35;4.80;99.90
52024;DHT22;38038;45.922;13.604;2022-12-18T14:51:25;4.80;99.90
52024;DHT22;38038;45.922;13.604;2022-12-18T14:54:03;4.70;99.90
52024;DHT22;38038;45.922;13.604;2022-12-18T14:56:34;4.70;99.90
52024;DHT22;38038;45.922;13.604;2022-12-18T14:59:03;4.60;99.90
52024;DHT22;38038;45.922;13.604;2022-12-18T15:01:39;4.60;99.90
52024;DHT22;38038;45.922;13.604;2022-12-18T15:04:32;4.50;99.90
52024;DHT22;38038;45.922;13.604;2022-12-18T15:07:23;4.50;99.90
52024;DHT22;38038;45.922;13.604;2022-12-18T15:10:10;4.50;99.90
52024;DHT22;38038;45.922;13.604;2022-12-18T15:12:39;4.40;99.90
52024;DHT22;38038;45.922;13.604;2022-12-18T15:15:41;4.40;99.90
52024;DHT22;38038;45.922;13.604;2022-12-18T15:18:00;4.30;99.90
52024;DHT22;38038;45.922;13.604;2022-12-18T15:20:26;4.30;99.90
52024;DHT22;38038;45.922;13.604;2022-12-18T15:22:52;4.20;99.90
52024;DHT22;38038;45.922;13.604;2022-12-18T15:25:45;4.20;99.90
52024;DHT22;38038;45.922;13.604;2022-12-18T15:28:27;4.10;99.90
52024;DHT22;38038;45.922;13.604;2022-12-18T15:31:43;4.10;99.90
52024;DHT22;38038;45.922;13.604;2022-12-18T15:39:06;4.00;99.90
52024;DHT22;38038;45.922;13.604;2022-12-18T15:41:35;3.90;99.90
52024;DHT22;38038;45.922;13.604;2022-12-18T15:44:01;3.90;99.90
52024;DHT22;38038;45.922;13.604;2022-12-18T15:46:28;3.90;99.90
52024;DHT22;38038;45.922;13.604;2022-12-18T15:48:55;3.90;99.90
52024;DHT22;38038;45.922;13.604;2022-12-18T15:53:51;3.80;99.90
52024;DHT22;38038;45.922;13.604;2022-12-18T15:56:18;3.70;99.90
52024;DHT22;38038;45.922;13.604;2022-12-18T15:59:04;3.80;99.90
52024;DHT22;38038;45.922;13.604;2022-12-18T16:01:30;3.70;99.90
52024;DHT22;38038;45.922;13.604;2022-12-18T16:03:57;3.60;99.90
52024;DHT22;38038;45.922;13.604;2022-12-18T16:06:23;3.60;99.90
52024;DHT22;38038;45.922;13.604;2022-12-18T16:08:49;3.60;99.90
52024;DHT22;38038;45.922;13.604;2022-12-18T16:16:31;3.50;99.90
52024;DHT22;38038;45.922;13.604;2022-12-18T16:18:56;3.50;99.90
52024;DHT22;38038;45.922;13.604;2022-12-18T16:21:22;3.50;99.90
52024;DHT22;38038;45.922;13.604;2022-12-18T16:23:48;3.50;99.90
52024;DHT22;38038;45.922;13.604;2022-12-18T16:26:13;3.50;99.90
52024;DHT22;38038;45.922;13.604;2022-12-18T16:28:39;3.40;99.90
52024;DHT22;38038;45.922;13.604;2022-12-18T16:31:05;3.30;99.90
52024;DHT22;38038;45.922;13.604;2022-12-18T16:33:30;3.30;99.90
52024;DHT22;38038;45.922;13.604;2022-12-18T16:35:56;3.30;99.90
52024;DHT22;38038;45.922;13.604;2022-12-18T16:38:22;3.20;99.90
52024;DHT22;38038;45.922;13.604;2022-12-18T16:40:49;3.20;99.90
52024;DHT22;38038;45.922;13.604;2022-12-18T16:43:33;3.20;99.90
52024;DHT22;38038;45.922;13.604;2022-12-18T16:45:59;3.20;99.90
52024;DHT22;38038;45.922;13.604;2022-12-18T16:48:24;3.10;99.90
52024;DHT22;38038;45.922;13.604;2022-12-18T16:51:00;3.10;99.90
52024;DHT22;38038;45.922;13.604;2022-12-18T16:53:29;3.10;99.90
52024;DHT22;38038;45.922;13.604;2022-12-18T16:55:55;3.00;99.90
52024;DHT22;38038;45.922;13.604;2022-12-18T16:58:21;3.00;99.90
52024;DHT22;38038;45.922;13.604;2022-12-18T17:00:47;2.90;99.90
52024;DHT22;38038;45.922;13.604;2022-12-18T17:03:12;2.80;99.90
52024;DHT22;38038;45.922;13.604;2022-12-18T17:05:38;2.90;99.90
52024;DHT22;38038;45.922;13.604;2022-12-18T17:08:04;2.90;99.90
52024;DHT22;38038;45.922;13.604;2022-12-18T17:10:30;2.90;99.90
52024;DHT22;38038;45.922;13.604;2022-12-18T17:12:55;2.90;99.90
52024;DHT22;38038;45.922;13.604;2022-12-18T17:15:21;2.80;99.90
52024;DHT22;38038;45.922;13.604;2022-12-18T17:17:47;2.80;99.90
52024;DHT22;38038;45.922;13.604;2022-12-18T17:20:25;2.80;99.90
52024;DHT22;38038;45.922;13.604;2022-12-18T17:22:51;2.80;99.90
52024;DHT22;38038;45.922;13.604;2022-12-18T17:25:17;2.90;99.90
52024;DHT22;38038;45.922;13.604;2022-12-18T17:27:43;2.90;99.90
52024;DHT22;38038;45.922;13.604;2022-12-18T17:30:09;2.80;99.90
52024;DHT22;38038;45.922;13.604;2022-12-18T17:32:35;2.90;99.90
52024;DHT22;38038;45.922;13.604;2022-12-18T17:35:01;2.80;99.90
52024;DHT22;38038;45.922;13.604;2022-12-18T17:37:26;2.80;99.90
52024;DHT22;38038;45.922;13.604;2022-12-18T17:39:52;2.80;99.90
52024;DHT22;38038;45.922;13.604;2022-12-18T17:42:18;2.70;99.90
52024;DHT22;38038;45.922;13.604;2022-12-18T17:44:44;2.70;99.90
52024;DHT22;38038;45.922;13.604;2022-12-18T17:47:14;2.70;99.90
52024;DHT22;38038;45.922;13.604;2022-12-18T17:49:40;2.80;99.90
52024;DHT22;38038;45.922;13.604;2022-12-18T17:52:06;2.60;99.90
52024;DHT22;38038;45.922;13.604;2022-12-18T17:54:32;2.60;99.90
52024;DHT22;38038;45.922;13.604;2022-12-18T17:56:58;2.50;99.90
52024;DHT22;38038;45.922;13.604;2022-12-18T17:59:23;2.50;99.90